sensor_id;sensor_type;location;lat;lon;timestamp;P1;durP1;ratioP1;P2;durP2;ratioP2
55732;SDS011;41637;52.364;9.910;2023-07-29T00:01:31;3.00;;;1.60;;
55732;SDS011;41637;52.364;9.910;2023-07-29T00:04:00;2.20;;;1.30;;
55732;SDS011;41637;52.364;9.910;2023-07-29T00:06:26;2.20;;;1.40;;
55732;SDS011;41637;52.364;9.910;2023-07-29T00:08:53;2.30;;;1.30;;
55732;SDS011;41637;52.364;9.910;2023-07-29T00:11:20;2.80;;;1.50;;
55732;SDS011;41637;52.364;9.910;2023-07-29T00:13:47;3.10;;;1.30;;
55732;SDS011;41637;52.364;9.910;2023-07-29T00:16:16;2.50;;;1.40;;
55732;SDS011;41637;52.364;9.910;2023-07-29T00:18:43;2.50;;;1.40;;
55732;SDS011;41637;52.364;9.910;2023-07-29T00:21:10;2.70;;;1.30;;
55732;SDS011;41637;52.364;9.910;2023-07-29T00:23:37;2.90;;;1.50;;
55732;SDS011;41637;52.364;9.910;2023-07-29T00:26:04;2.90;;;1.40;;
55732;SDS011;41637;52.364;9.910;2023-07-29T00:28:31;2.40;;;1.40;;
55732;SDS011;41637;52.364;9.910;2023-07-29T00:30:58;1.70;;;1.30;;
55732;SDS011;41637;52.364;9.910;2023-07-29T00:33:25;1.70;;;1.30;;
55732;SDS011;41637;52.364;9.910;2023-07-29T00:35:52;1.80;;;1.20;;
55732;SDS011;41637;52.364;9.910;2023-07-29T00:38:18;3.50;;;1.50;;
55732;SDS011;41637;52.364;9.910;2023-07-29T00:40:45;2.00;;;1.20;;
55732;SDS011;41637;52.364;9.910;2023-07-29T00:43:12;3.40;;;1.40;;
55732;SDS011;41637;52.364;9.910;2023-07-29T00:45:39;2.00;;;1.30;;
55732;SDS011;41637;52.364;9.910;2023-07-29T00:48:09;2.40;;;1.60;;
55732;SDS011;41637;52.364;9.910;2023-07-29T00:50:36;2.60;;;1.50;;
55732;SDS011;41637;52.364;9.910;2023-07-29T00:53:03;2.30;;;1.40;;
55732;SDS011;41637;52.364;9.910;2023-07-29T00:55:30;3.60;;;1.40;;
55732;SDS011;41637;52.364;9.910;2023-07-29T00:57:56;2.50;;;1.40;;
55732;SDS011;41637;52.364;9.910;2023-07-29T01:00:23;2.80;;;1.60;;
55732;SDS011;41637;52.364;9.910;2023-07-29T01:02:52;1.80;;;1.40;;
55732;SDS011;41637;52.364;9.910;2023-07-29T01:05:21;3.30;;;1.60;;
55732;SDS011;41637;52.364;9.910;2023-07-29T01:07:59;2.40;;;1.80;;
55732;SDS011;41637;52.364;9.910;2023-07-29T01:10:40;3.00;;;1.60;;
55732;SDS011;41637;52.364;9.910;2023-07-29T01:13:13;3.10;;;1.60;;
55732;SDS011;41637;52.364;9.910;2023-07-29T01:15:50;2.50;;;1.50;;
55732;SDS011;41637;52.364;9.910;2023-07-29T01:18:30;2.40;;;1.50;;
55732;SDS011;41637;52.364;9.910;2023-07-29T01:20:59;2.90;;;1.80;;
55732;SDS011;41637;52.364;9.910;2023-07-29T01:23:33;3.00;;;1.50;;
55732;SDS011;41637;52.364;9.910;2023-07-29T01:26:01;4.00;;;1.80;;
55732;SDS011;41637;52.364;9.910;2023-07-29T01:28:29;2.70;;;1.70;;
55732;SDS011;41637;52.364;9.910;2023-07-29T01:31:05;2.00;;;1.50;;
55732;SDS011;41637;52.364;9.910;2023-07-29T01:33:40;2.80;;;1.80;;
55732;SDS011;41637;52.364;9.910;2023-07-29T01:36:18;2.60;;;1.70;;
55732;SDS011;41637;52.364;9.910;2023-07-29T01:38:49;2.90;;;1.80;;
55732;SDS011;41637;52.364;9.910;2023-07-29T01:41:17;3.40;;;1.90;;
55732;SDS011;41637;52.364;9.910;2023-07-29T01:43:45;2.20;;;1.90;;
55732;SDS011;41637;52.364;9.910;2023-07-29T01:46:13;3.50;;;1.80;;
55732;SDS011;41637;52.364;9.910;2023-07-29T01:48:41;3.70;;;2.20;;
55732;SDS011;41637;52.364;9.910;2023-07-29T01:51:10;2.50;;;1.90;;
55732;SDS011;41637;52.364;9.910;2023-07-29T01:53:38;2.70;;;2.00;;
55732;SDS011;41637;52.364;9.910;2023-07-29T01:56:04;2.60;;;2.00;;
55732;SDS011;41637;52.364;9.910;2023-07-29T01:58:31;2.50;;;1.90;;
55732;SDS011;41637;52.364;9.910;2023-07-29T02:00:58;3.20;;;2.00;;
55732;SDS011;41637;52.364;9.910;2023-07-29T02:03:25;3.80;;;1.80;;
55732;SDS011;41637;52.364;9.910;2023-07-29T02:05:52;4.50;;;2.00;;
55732;SDS011;41637;52.364;9.910;2023-07-29T02:08:19;2.10;;;1.70;;
55732;SDS011;41637;52.364;9.910;2023-07-29T02:10:45;2.90;;;1.90;;
55732;SDS011;41637;52.364;9.910;2023-07-29T02:13:12;3.60;;;1.90;;
55732;SDS011;41637;52.364;9.910;2023-07-29T02:15:39;3.00;;;1.80;;
55732;SDS011;41637;52.364;9.910;2023-07-29T02:18:05;2.80;;;1.70;;
55732;SDS011;41637;52.364;9.910;2023-07-29T02:20:33;2.30;;;1.80;;
55732;SDS011;41637;52.364;9.910;2023-07-29T02:23:00;2.40;;;1.70;;
55732;SDS011;41637;52.364;9.910;2023-07-29T02:25:27;2.70;;;1.60;;
55732;SDS011;41637;52.364;9.910;2023-07-29T02:27:54;2.20;;;1.40;;
55732;SDS011;41637;52.364;9.910;2023-07-29T02:30:21;2.60;;;1.60;;
55732;SDS011;41637;52.364;9.910;2023-07-29T02:32:47;2.70;;;1.60;;
55732;SDS011;41637;52.364;9.910;2023-07-29T02:35:15;2.50;;;1.60;;
55732;SDS011;41637;52.364;9.910;2023-07-29T02:37:41;2.50;;;1.50;;
55732;SDS011;41637;52.364;9.910;2023-07-29T02:40:08;1.80;;;1.50;;
55732;SDS011;41637;52.364;9.910;2023-07-29T02:42:36;3.50;;;1.40;;
55732;SDS011;41637;52.364;9.910;2023-07-29T02:45:03;2.00;;;1.50;;
55732;SDS011;41637;52.364;9.910;2023-07-29T02:47:30;2.50;;;1.50;;
55732;SDS011;41637;52.364;9.910;2023-07-29T02:49:57;2.30;;;1.50;;
55732;SDS011;41637;52.364;9.910;2023-07-29T02:52:23;5.70;;;1.80;;
55732;SDS011;41637;52.364;9.910;2023-07-29T02:54:50;3.20;;;1.70;;
55732;SDS011;41637;52.364;9.910;2023-07-29T02:57:17;2.20;;;1.70;;
55732;SDS011;41637;52.364;9.910;2023-07-29T02:59:44;2.30;;;1.60;;
55732;SDS011;41637;52.364;9.910;2023-07-29T03:02:10;2.50;;;1.60;;
55732;SDS011;41637;52.364;9.910;2023-07-29T03:04:37;2.20;;;1.60;;
55732;SDS011;41637;52.364;9.910;2023-07-29T03:07:04;2.50;;;1.60;;
55732;SDS011;41637;52.364;9.910;2023-07-29T03:09:31;2.50;;;1.60;;
55732;SDS011;41637;52.364;9.910;2023-07-29T03:11:59;2.40;;;1.60;;
55732;SDS011;41637;52.364;9.910;2023-07-29T03:14:26;1.90;;;1.50;;
55732;SDS011;41637;52.364;9.910;2023-07-29T03:16:54;2.00;;;1.50;;
55732;SDS011;41637;52.364;9.910;2023-07-29T03:19:20;2.90;;;1.50;;
55732;SDS011;41637;52.364;9.910;2023-07-29T03:21:47;2.30;;;1.50;;
55732;SDS011;41637;52.364;9.910;2023-07-29T03:24:15;2.40;;;1.60;;
55732;SDS011;41637;52.364;9.910;2023-07-29T03:26:43;2.50;;;1.40;;
55732;SDS011;41637;52.364;9.910;2023-07-29T03:29:12;2.80;;;1.40;;
55732;SDS011;41637;52.364;9.910;2023-07-29T03:31:38;2.20;;;1.40;;
55732;SDS011;41637;52.364;9.910;2023-07-29T03:34:05;1.80;;;1.30;;
55732;SDS011;41637;52.364;9.910;2023-07-29T03:36:32;2.80;;;1.40;;
55732;SDS011;41637;52.364;9.910;2023-07-29T03:38:59;1.90;;;1.30;;
55732;SDS011;41637;52.364;9.910;2023-07-29T03:41:26;1.80;;;1.20;;
55732;SDS011;41637;52.364;9.910;2023-07-29T03:43:53;1.90;;;1.20;;
55732;SDS011;41637;52.364;9.910;2023-07-29T03:46:20;2.60;;;1.30;;
55732;SDS011;41637;52.364;9.910;2023-07-29T03:48:48;1.90;;;1.30;;
55732;SDS011;41637;52.364;9.910;2023-07-29T03:51:15;2.40;;;1.40;;
55732;SDS011;41637;52.364;9.910;2023-07-29T03:53:42;1.90;;;1.30;;
55732;SDS011;41637;52.364;9.910;2023-07-29T03:56:08;1.70;;;1.20;;
55732;SDS011;41637;52.364;9.910;2023-07-29T03:58:35;2.70;;;1.30;;
55732;SDS011;41637;52.364;9.910;2023-07-29T04:01:02;2.70;;;1.40;;
55732;SDS011;41637;52.364;9.910;2023-07-29T04:03:30;2.20;;;1.20;;
55732;SDS011;41637;52.364;9.910;2023-07-29T04:05:58;1.80;;;1.30;;
55732;SDS011;41637;52.364;9.910;2023-07-29T04:08:24;2.10;;;1.50;;
55732;SDS011;41637;52.364;9.910;2023-07-29T04:10:52;2.10;;;1.30;;
55732;SDS011;41637;52.364;9.910;2023-07-29T04:13:19;1.80;;;1.30;;
55732;SDS011;41637;52.364;9.910;2023-07-29T04:15:46;1.50;;;1.10;;
55732;SDS011;41637;52.364;9.910;2023-07-29T04:18:13;1.70;;;1.20;;
55732;SDS011;41637;52.364;9.910;2023-07-29T04:20:40;3.00;;;1.30;;
55732;SDS011;41637;52.364;9.910;2023-07-29T04:23:07;2.30;;;1.30;;
55732;SDS011;41637;52.364;9.910;2023-07-29T04:25:33;2.30;;;1.20;;
55732;SDS011;41637;52.364;9.910;2023-07-29T04:28:00;2.40;;;1.20;;
55732;SDS011;41637;52.364;9.910;2023-07-29T04:30:29;2.70;;;1.20;;
55732;SDS011;41637;52.364;9.910;2023-07-29T04:32:56;3.20;;;1.60;;
55732;SDS011;41637;52.364;9.910;2023-07-29T04:35:23;2.40;;;1.40;;
55732;SDS011;41637;52.364;9.910;2023-07-29T04:37:49;3.60;;;1.80;;
55732;SDS011;41637;52.364;9.910;2023-07-29T04:40:16;2.30;;;1.50;;
55732;SDS011;41637;52.364;9.910;2023-07-29T04:42:43;3.40;;;1.40;;
55732;SDS011;41637;52.364;9.910;2023-07-29T04:45:10;2.50;;;1.30;;
55732;SDS011;41637;52.364;9.910;2023-07-29T04:47:37;1.90;;;1.30;;
55732;SDS011;41637;52.364;9.910;2023-07-29T04:50:04;2.30;;;1.50;;
55732;SDS011;41637;52.364;9.910;2023-07-29T04:52:32;2.30;;;1.30;;
55732;SDS011;41637;52.364;9.910;2023-07-29T04:54:59;2.80;;;1.40;;
55732;SDS011;41637;52.364;9.910;2023-07-29T04:57:26;4.20;;;1.80;;
55732;SDS011;41637;52.364;9.910;2023-07-29T04:59:52;2.50;;;1.60;;
55732;SDS011;41637;52.364;9.910;2023-07-29T05:02:19;2.80;;;1.60;;
55732;SDS011;41637;52.364;9.910;2023-07-29T05:04:47;2.40;;;1.80;;
55732;SDS011;41637;52.364;9.910;2023-07-29T05:07:14;3.20;;;1.50;;
55732;SDS011;41637;52.364;9.910;2023-07-29T05:09:40;2.60;;;1.40;;
55732;SDS011;41637;52.364;9.910;2023-07-29T05:12:07;3.60;;;1.50;;
55732;SDS011;41637;52.364;9.910;2023-07-29T05:14:34;2.00;;;1.30;;
55732;SDS011;41637;52.364;9.910;2023-07-29T05:17:01;1.80;;;1.20;;
55732;SDS011;41637;52.364;9.910;2023-07-29T05:19:28;2.10;;;1.30;;
55732;SDS011;41637;52.364;9.910;2023-07-29T05:21:56;3.40;;;1.40;;
55732;SDS011;41637;52.364;9.910;2023-07-29T05:24:23;2.80;;;1.40;;
55732;SDS011;41637;52.364;9.910;2023-07-29T05:26:50;2.10;;;1.40;;
55732;SDS011;41637;52.364;9.910;2023-07-29T05:29:17;3.40;;;1.50;;
55732;SDS011;41637;52.364;9.910;2023-07-29T05:31:44;2.60;;;1.40;;
55732;SDS011;41637;52.364;9.910;2023-07-29T05:34:10;2.40;;;1.40;;
55732;SDS011;41637;52.364;9.910;2023-07-29T05:36:37;4.60;;;1.70;;
55732;SDS011;41637;52.364;9.910;2023-07-29T05:39:05;8.70;;;2.00;;
55732;SDS011;41637;52.364;9.910;2023-07-29T05:41:32;2.90;;;1.80;;
55732;SDS011;41637;52.364;9.910;2023-07-29T05:43:58;2.80;;;1.50;;
55732;SDS011;41637;52.364;9.910;2023-07-29T05:46:25;3.20;;;1.60;;
55732;SDS011;41637;52.364;9.910;2023-07-29T05:48:52;2.80;;;1.70;;
55732;SDS011;41637;52.364;9.910;2023-07-29T05:51:19;3.00;;;1.80;;
55732;SDS011;41637;52.364;9.910;2023-07-29T05:53:46;3.30;;;1.80;;
55732;SDS011;41637;52.364;9.910;2023-07-29T05:56:12;2.40;;;1.60;;
55732;SDS011;41637;52.364;9.910;2023-07-29T05:58:39;2.30;;;1.60;;
55732;SDS011;41637;52.364;9.910;2023-07-29T06:01:06;2.50;;;1.50;;
55732;SDS011;41637;52.364;9.910;2023-07-29T06:03:32;2.40;;;1.70;;
55732;SDS011;41637;52.364;9.910;2023-07-29T06:05:59;3.20;;;1.60;;
55732;SDS011;41637;52.364;9.910;2023-07-29T06:08:26;3.20;;;1.50;;
55732;SDS011;41637;52.364;9.910;2023-07-29T06:10:54;2.60;;;1.40;;
55732;SDS011;41637;52.364;9.910;2023-07-29T06:13:21;2.00;;;1.20;;
55732;SDS011;41637;52.364;9.910;2023-07-29T06:15:48;2.30;;;1.40;;
55732;SDS011;41637;52.364;9.910;2023-07-29T06:18:16;5.40;;;1.70;;
55732;SDS011;41637;52.364;9.910;2023-07-29T06:20:43;2.80;;;1.40;;
55732;SDS011;41637;52.364;9.910;2023-07-29T06:23:09;4.10;;;1.30;;
55732;SDS011;41637;52.364;9.910;2023-07-29T06:25:36;2.70;;;1.50;;
55732;SDS011;41637;52.364;9.910;2023-07-29T06:28:03;2.50;;;1.40;;
55732;SDS011;41637;52.364;9.910;2023-07-29T06:30:31;3.50;;;1.60;;
55732;SDS011;41637;52.364;9.910;2023-07-29T06:32:58;3.60;;;1.40;;
55732;SDS011;41637;52.364;9.910;2023-07-29T06:35:25;2.90;;;1.40;;
55732;SDS011;41637;52.364;9.910;2023-07-29T06:37:52;3.60;;;1.40;;
55732;SDS011;41637;52.364;9.910;2023-07-29T06:40:18;4.40;;;1.50;;
55732;SDS011;41637;52.364;9.910;2023-07-29T06:42:45;4.00;;;1.50;;
55732;SDS011;41637;52.364;9.910;2023-07-29T06:45:12;3.60;;;1.60;;
55732;SDS011;41637;52.364;9.910;2023-07-29T06:47:39;4.00;;;1.50;;
55732;SDS011;41637;52.364;9.910;2023-07-29T06:50:06;3.20;;;1.40;;
55732;SDS011;41637;52.364;9.910;2023-07-29T06:52:33;3.90;;;1.50;;
55732;SDS011;41637;52.364;9.910;2023-07-29T06:55:00;3.30;;;1.40;;
55732;SDS011;41637;52.364;9.910;2023-07-29T06:57:26;2.90;;;1.40;;
55732;SDS011;41637;52.364;9.910;2023-07-29T06:59:53;4.10;;;1.40;;
55732;SDS011;41637;52.364;9.910;2023-07-29T07:02:20;4.10;;;1.70;;
55732;SDS011;41637;52.364;9.910;2023-07-29T07:04:47;3.60;;;1.40;;
55732;SDS011;41637;52.364;9.910;2023-07-29T07:07:14;2.70;;;1.40;;
55732;SDS011;41637;52.364;9.910;2023-07-29T07:09:41;2.60;;;1.40;;
55732;SDS011;41637;52.364;9.910;2023-07-29T07:12:08;3.40;;;1.10;;
55732;SDS011;41637;52.364;9.910;2023-07-29T07:14:35;3.50;;;1.30;;
55732;SDS011;41637;52.364;9.910;2023-07-29T07:17:01;1.70;;;1.00;;
55732;SDS011;41637;52.364;9.910;2023-07-29T07:19:28;4.00;;;1.30;;
55732;SDS011;41637;52.364;9.910;2023-07-29T07:21:55;2.10;;;1.10;;
55732;SDS011;41637;52.364;9.910;2023-07-29T07:24:22;2.50;;;1.30;;
55732;SDS011;41637;52.364;9.910;2023-07-29T07:26:48;2.30;;;1.20;;
55732;SDS011;41637;52.364;9.910;2023-07-29T07:29:15;2.90;;;1.10;;
55732;SDS011;41637;52.364;9.910;2023-07-29T07:31:46;2.80;;;1.20;;
55732;SDS011;41637;52.364;9.910;2023-07-29T07:34:18;1.90;;;1.20;;
55732;SDS011;41637;52.364;9.910;2023-07-29T07:36:45;2.60;;;1.10;;
55732;SDS011;41637;52.364;9.910;2023-07-29T07:39:13;2.30;;;1.10;;
55732;SDS011;41637;52.364;9.910;2023-07-29T07:41:40;3.10;;;1.40;;
55732;SDS011;41637;52.364;9.910;2023-07-29T07:44:07;1.80;;;1.20;;
55732;SDS011;41637;52.364;9.910;2023-07-29T07:46:35;3.00;;;1.30;;
55732;SDS011;41637;52.364;9.910;2023-07-29T07:49:02;2.20;;;1.30;;
55732;SDS011;41637;52.364;9.910;2023-07-29T07:51:29;4.40;;;1.20;;
55732;SDS011;41637;52.364;9.910;2023-07-29T07:53:56;1.70;;;1.00;;
55732;SDS011;41637;52.364;9.910;2023-07-29T07:56:22;1.80;;;1.10;;
55732;SDS011;41637;52.364;9.910;2023-07-29T07:58:49;2.00;;;1.10;;
55732;SDS011;41637;52.364;9.910;2023-07-29T08:01:16;2.20;;;0.90;;
55732;SDS011;41637;52.364;9.910;2023-07-29T08:03:42;2.30;;;1.00;;
55732;SDS011;41637;52.364;9.910;2023-07-29T08:06:10;3.30;;;1.00;;
55732;SDS011;41637;52.364;9.910;2023-07-29T08:08:36;2.40;;;1.00;;
55732;SDS011;41637;52.364;9.910;2023-07-29T08:11:03;2.10;;;0.90;;
55732;SDS011;41637;52.364;9.910;2023-07-29T08:13:30;2.30;;;1.00;;
55732;SDS011;41637;52.364;9.910;2023-07-29T08:15:56;2.60;;;1.10;;
55732;SDS011;41637;52.364;9.910;2023-07-29T08:18:23;2.40;;;1.00;;
55732;SDS011;41637;52.364;9.910;2023-07-29T08:20:53;2.10;;;0.90;;
55732;SDS011;41637;52.364;9.910;2023-07-29T08:23:21;2.30;;;0.90;;
55732;SDS011;41637;52.364;9.910;2023-07-29T08:25:55;3.00;;;1.00;;
55732;SDS011;41637;52.364;9.910;2023-07-29T08:28:28;1.60;;;0.70;;
55732;SDS011;41637;52.364;9.910;2023-07-29T08:30:57;2.60;;;0.90;;
55732;SDS011;41637;52.364;9.910;2023-07-29T08:33:24;1.90;;;1.00;;
55732;SDS011;41637;52.364;9.910;2023-07-29T08:35:51;1.60;;;0.90;;
55732;SDS011;41637;52.364;9.910;2023-07-29T08:38:18;1.90;;;0.80;;
55732;SDS011;41637;52.364;9.910;2023-07-29T08:40:49;2.90;;;1.10;;
55732;SDS011;41637;52.364;9.910;2023-07-29T08:43:20;2.30;;;1.10;;
55732;SDS011;41637;52.364;9.910;2023-07-29T08:45:56;4.00;;;1.80;;
55732;SDS011;41637;52.364;9.910;2023-07-29T08:48:29;2.10;;;1.20;;
55732;SDS011;41637;52.364;9.910;2023-07-29T08:50:59;4.00;;;1.70;;
55732;SDS011;41637;52.364;9.910;2023-07-29T08:53:27;3.50;;;1.60;;
55732;SDS011;41637;52.364;9.910;2023-07-29T08:55:54;3.60;;;2.50;;
55732;SDS011;41637;52.364;9.910;2023-07-29T08:58:22;4.70;;;2.10;;
55732;SDS011;41637;52.364;9.910;2023-07-29T09:00:49;2.40;;;1.30;;
55732;SDS011;41637;52.364;9.910;2023-07-29T09:03:17;1.80;;;1.30;;
55732;SDS011;41637;52.364;9.910;2023-07-29T09:05:44;3.20;;;1.50;;
55732;SDS011;41637;52.364;9.910;2023-07-29T09:08:11;2.70;;;1.40;;
55732;SDS011;41637;52.364;9.910;2023-07-29T09:10:38;2.20;;;1.30;;
55732;SDS011;41637;52.364;9.910;2023-07-29T09:13:05;2.40;;;1.80;;
55732;SDS011;41637;52.364;9.910;2023-07-29T09:15:33;2.40;;;1.70;;
55732;SDS011;41637;52.364;9.910;2023-07-29T09:18:18;3.30;;;1.70;;
55732;SDS011;41637;52.364;9.910;2023-07-29T09:20:47;3.80;;;1.80;;
55732;SDS011;41637;52.364;9.910;2023-07-29T09:23:15;14.30;;;3.00;;
55732;SDS011;41637;52.364;9.910;2023-07-29T09:25:42;4.00;;;2.10;;
55732;SDS011;41637;52.364;9.910;2023-07-29T09:28:10;3.50;;;2.20;;
55732;SDS011;41637;52.364;9.910;2023-07-29T09:30:39;2.80;;;1.30;;
55732;SDS011;41637;52.364;9.910;2023-07-29T09:33:07;3.00;;;1.40;;
55732;SDS011;41637;52.364;9.910;2023-07-29T09:35:34;3.90;;;1.90;;
55732;SDS011;41637;52.364;9.910;2023-07-29T09:38:03;3.30;;;1.70;;
55732;SDS011;41637;52.364;9.910;2023-07-29T09:40:34;2.60;;;1.70;;
55732;SDS011;41637;52.364;9.910;2023-07-29T09:43:02;2.20;;;1.90;;
55732;SDS011;41637;52.364;9.910;2023-07-29T09:45:31;3.90;;;2.10;;
55732;SDS011;41637;52.364;9.910;2023-07-29T09:48:00;3.30;;;2.00;;
55732;SDS011;41637;52.364;9.910;2023-07-29T09:50:28;3.20;;;2.40;;
55732;SDS011;41637;52.364;9.910;2023-07-29T09:52:55;4.70;;;3.00;;
55732;SDS011;41637;52.364;9.910;2023-07-29T09:55:24;4.10;;;2.30;;
55732;SDS011;41637;52.364;9.910;2023-07-29T09:57:56;5.20;;;2.90;;
55732;SDS011;41637;52.364;9.910;2023-07-29T10:00:30;3.50;;;2.50;;
55732;SDS011;41637;52.364;9.910;2023-07-29T10:02:58;4.30;;;3.00;;
55732;SDS011;41637;52.364;9.910;2023-07-29T10:05:26;3.00;;;2.40;;
55732;SDS011;41637;52.364;9.910;2023-07-29T10:07:54;4.40;;;3.30;;
55732;SDS011;41637;52.364;9.910;2023-07-29T10:10:22;3.90;;;3.00;;
55732;SDS011;41637;52.364;9.910;2023-07-29T10:12:49;4.00;;;3.40;;
55732;SDS011;41637;52.364;9.910;2023-07-29T10:15:16;3.90;;;3.40;;
55732;SDS011;41637;52.364;9.910;2023-07-29T10:17:43;5.50;;;3.50;;
55732;SDS011;41637;52.364;9.910;2023-07-29T10:20:15;3.90;;;3.40;;
55732;SDS011;41637;52.364;9.910;2023-07-29T10:22:43;3.90;;;3.50;;
55732;SDS011;41637;52.364;9.910;2023-07-29T10:25:15;4.80;;;4.30;;
55732;SDS011;41637;52.364;9.910;2023-07-29T10:27:53;3.80;;;3.40;;
55732;SDS011;41637;52.364;9.910;2023-07-29T10:30:32;3.70;;;3.20;;
55732;SDS011;41637;52.364;9.910;2023-07-29T10:33:02;4.00;;;3.10;;
55732;SDS011;41637;52.364;9.910;2023-07-29T10:35:34;3.20;;;2.90;;
55732;SDS011;41637;52.364;9.910;2023-07-29T10:38:02;4.70;;;3.60;;
55732;SDS011;41637;52.364;9.910;2023-07-29T10:41:04;4.20;;;2.80;;
55732;SDS011;41637;52.364;9.910;2023-07-29T10:46:14;3.10;;;2.80;;
55732;SDS011;41637;52.364;9.910;2023-07-29T10:48:56;5.50;;;2.60;;
55732;SDS011;41637;52.364;9.910;2023-07-29T10:51:24;3.50;;;2.50;;
55732;SDS011;41637;52.364;9.910;2023-07-29T10:54:00;6.40;;;2.50;;
55732;SDS011;41637;52.364;9.910;2023-07-29T10:56:33;3.80;;;2.40;;
55732;SDS011;41637;52.364;9.910;2023-07-29T10:59:23;2.60;;;2.20;;
55732;SDS011;41637;52.364;9.910;2023-07-29T11:01:57;2.80;;;2.00;;
55732;SDS011;41637;52.364;9.910;2023-07-29T11:04:25;2.90;;;2.00;;
55732;SDS011;41637;52.364;9.910;2023-07-29T11:17:37;2.10;;;1.70;;
55732;SDS011;41637;52.364;9.910;2023-07-29T11:20:06;2.20;;;1.80;;
55732;SDS011;41637;52.364;9.910;2023-07-29T11:22:34;2.20;;;1.60;;
55732;SDS011;41637;52.364;9.910;2023-07-29T11:25:02;1.90;;;1.50;;
55732;SDS011;41637;52.364;9.910;2023-07-29T11:27:29;2.20;;;1.40;;
55732;SDS011;41637;52.364;9.910;2023-07-29T11:29:59;2.90;;;1.40;;
55732;SDS011;41637;52.364;9.910;2023-07-29T11:32:28;2.80;;;1.80;;
55732;SDS011;41637;52.364;9.910;2023-07-29T11:34:54;2.20;;;1.50;;
55732;SDS011;41637;52.364;9.910;2023-07-29T11:37:21;2.00;;;1.10;;
55732;SDS011;41637;52.364;9.910;2023-07-29T11:39:48;2.50;;;1.10;;
55732;SDS011;41637;52.364;9.910;2023-07-29T11:42:15;3.30;;;1.20;;
55732;SDS011;41637;52.364;9.910;2023-07-29T11:44:42;2.80;;;1.40;;
55732;SDS011;41637;52.364;9.910;2023-07-29T11:47:09;2.50;;;1.30;;
55732;SDS011;41637;52.364;9.910;2023-07-29T11:49:40;2.20;;;1.10;;
55732;SDS011;41637;52.364;9.910;2023-07-29T11:52:10;2.00;;;1.10;;
55732;SDS011;41637;52.364;9.910;2023-07-29T11:54:38;2.60;;;1.20;;
55732;SDS011;41637;52.364;9.910;2023-07-29T11:57:08;1.90;;;1.00;;
55732;SDS011;41637;52.364;9.910;2023-07-29T11:59:36;1.70;;;1.20;;
55732;SDS011;41637;52.364;9.910;2023-07-29T12:02:05;2.90;;;1.10;;
55732;SDS011;41637;52.364;9.910;2023-07-29T12:04:36;1.90;;;1.00;;
55732;SDS011;41637;52.364;9.910;2023-07-29T12:07:04;1.20;;;0.60;;
55732;SDS011;41637;52.364;9.910;2023-07-29T12:09:32;2.00;;;0.60;;
55732;SDS011;41637;52.364;9.910;2023-07-29T12:12:00;1.60;;;0.70;;
55732;SDS011;41637;52.364;9.910;2023-07-29T12:14:28;0.90;;;0.50;;
55732;SDS011;41637;52.364;9.910;2023-07-29T12:16:55;0.90;;;0.50;;
55732;SDS011;41637;52.364;9.910;2023-07-29T12:19:22;1.40;;;0.60;;
55732;SDS011;41637;52.364;9.910;2023-07-29T12:21:49;2.60;;;0.50;;
55732;SDS011;41637;52.364;9.910;2023-07-29T12:24:15;1.20;;;0.60;;
55732;SDS011;41637;52.364;9.910;2023-07-29T12:26:42;1.50;;;0.60;;
55732;SDS011;41637;52.364;9.910;2023-07-29T12:29:12;1.10;;;0.60;;
55732;SDS011;41637;52.364;9.910;2023-07-29T12:31:46;1.30;;;0.50;;
55732;SDS011;41637;52.364;9.910;2023-07-29T12:34:19;1.30;;;0.50;;
55732;SDS011;41637;52.364;9.910;2023-07-29T12:36:48;1.70;;;0.50;;
55732;SDS011;41637;52.364;9.910;2023-07-29T12:39:20;1.00;;;0.60;;
55732;SDS011;41637;52.364;9.910;2023-07-29T12:41:57;1.00;;;0.50;;
55732;SDS011;41637;52.364;9.910;2023-07-29T12:44:33;0.80;;;0.50;;
55732;SDS011;41637;52.364;9.910;2023-07-29T12:47:02;1.50;;;0.50;;
55732;SDS011;41637;52.364;9.910;2023-07-29T12:49:30;0.90;;;0.50;;
55732;SDS011;41637;52.364;9.910;2023-07-29T12:51:57;1.00;;;0.40;;
55732;SDS011;41637;52.364;9.910;2023-07-29T12:54:24;1.40;;;0.50;;
55732;SDS011;41637;52.364;9.910;2023-07-29T12:56:51;0.90;;;0.40;;
55732;SDS011;41637;52.364;9.910;2023-07-29T12:59:18;1.10;;;0.40;;
55732;SDS011;41637;52.364;9.910;2023-07-29T13:01:45;1.20;;;0.50;;
55732;SDS011;41637;52.364;9.910;2023-07-29T13:04:11;0.90;;;0.50;;
55732;SDS011;41637;52.364;9.910;2023-07-29T13:06:38;0.80;;;0.30;;
55732;SDS011;41637;52.364;9.910;2023-07-29T13:09:05;1.70;;;0.50;;
55732;SDS011;41637;52.364;9.910;2023-07-29T13:11:32;1.70;;;0.60;;
55732;SDS011;41637;52.364;9.910;2023-07-29T13:13:59;1.00;;;0.50;;
55732;SDS011;41637;52.364;9.910;2023-07-29T13:16:27;1.20;;;0.60;;
55732;SDS011;41637;52.364;9.910;2023-07-29T13:18:55;2.10;;;0.40;;
55732;SDS011;41637;52.364;9.910;2023-07-29T13:21:22;1.00;;;0.40;;
55732;SDS011;41637;52.364;9.910;2023-07-29T13:23:50;1.50;;;0.40;;
55732;SDS011;41637;52.364;9.910;2023-07-29T13:26:18;0.90;;;0.30;;
55732;SDS011;41637;52.364;9.910;2023-07-29T13:28:45;0.90;;;0.40;;
55732;SDS011;41637;52.364;9.910;2023-07-29T13:31:11;2.00;;;0.40;;
55732;SDS011;41637;52.364;9.910;2023-07-29T13:33:39;0.90;;;0.50;;
55732;SDS011;41637;52.364;9.910;2023-07-29T13:36:06;1.50;;;0.30;;
55732;SDS011;41637;52.364;9.910;2023-07-29T13:38:34;0.90;;;0.40;;
55732;SDS011;41637;52.364;9.910;2023-07-29T13:41:02;1.80;;;0.60;;
55732;SDS011;41637;52.364;9.910;2023-07-29T13:43:28;1.00;;;0.50;;
55732;SDS011;41637;52.364;9.910;2023-07-29T13:45:55;1.00;;;0.50;;
55732;SDS011;41637;52.364;9.910;2023-07-29T13:48:22;0.90;;;0.40;;
55732;SDS011;41637;52.364;9.910;2023-07-29T13:50:49;0.90;;;0.40;;
55732;SDS011;41637;52.364;9.910;2023-07-29T13:53:17;0.90;;;0.40;;
55732;SDS011;41637;52.364;9.910;2023-07-29T13:55:44;1.40;;;0.50;;
55732;SDS011;41637;52.364;9.910;2023-07-29T13:58:10;1.80;;;0.50;;
55732;SDS011;41637;52.364;9.910;2023-07-29T14:00:37;1.00;;;0.40;;
55732;SDS011;41637;52.364;9.910;2023-07-29T14:03:04;1.30;;;0.50;;
55732;SDS011;41637;52.364;9.910;2023-07-29T14:05:31;0.80;;;0.40;;
55732;SDS011;41637;52.364;9.910;2023-07-29T14:08:00;2.00;;;0.50;;
55732;SDS011;41637;52.364;9.910;2023-07-29T14:10:27;1.90;;;0.70;;
55732;SDS011;41637;52.364;9.910;2023-07-29T14:12:54;1.30;;;0.50;;
55732;SDS011;41637;52.364;9.910;2023-07-29T14:15:21;1.00;;;0.50;;
55732;SDS011;41637;52.364;9.910;2023-07-29T14:17:47;1.10;;;0.40;;
55732;SDS011;41637;52.364;9.910;2023-07-29T14:20:15;1.00;;;0.50;;
55732;SDS011;41637;52.364;9.910;2023-07-29T14:22:42;1.40;;;0.60;;
55732;SDS011;41637;52.364;9.910;2023-07-29T14:25:09;1.10;;;0.60;;
55732;SDS011;41637;52.364;9.910;2023-07-29T14:27:36;2.40;;;0.50;;
55732;SDS011;41637;52.364;9.910;2023-07-29T14:30:04;2.20;;;0.50;;
55732;SDS011;41637;52.364;9.910;2023-07-29T14:32:31;1.40;;;0.50;;
55732;SDS011;41637;52.364;9.910;2023-07-29T14:34:58;1.30;;;0.50;;
55732;SDS011;41637;52.364;9.910;2023-07-29T14:37:30;1.00;;;0.60;;
55732;SDS011;41637;52.364;9.910;2023-07-29T14:39:57;1.00;;;0.50;;
55732;SDS011;41637;52.364;9.910;2023-07-29T14:42:25;0.90;;;0.50;;
55732;SDS011;41637;52.364;9.910;2023-07-29T14:44:52;1.50;;;0.50;;
55732;SDS011;41637;52.364;9.910;2023-07-29T14:47:20;1.70;;;0.60;;
55732;SDS011;41637;52.364;9.910;2023-07-29T14:49:46;1.10;;;0.60;;
55732;SDS011;41637;52.364;9.910;2023-07-29T14:52:13;1.10;;;0.60;;
55732;SDS011;41637;52.364;9.910;2023-07-29T14:54:40;1.30;;;0.50;;
55732;SDS011;41637;52.364;9.910;2023-07-29T14:57:10;1.00;;;0.50;;
55732;SDS011;41637;52.364;9.910;2023-07-29T14:59:37;1.30;;;0.50;;
55732;SDS011;41637;52.364;9.910;2023-07-29T15:02:04;1.10;;;0.60;;
55732;SDS011;41637;52.364;9.910;2023-07-29T15:04:32;1.70;;;0.50;;
55732;SDS011;41637;52.364;9.910;2023-07-29T15:06:58;1.20;;;0.50;;